Time;durP1;ratioP1;P1;durP2;ratioP2;P2;SDS_P1;SDS_P2;PMS_P1;PMS_P2;Temp;Humidity;BMP_temperature;BMP_pressure;BME280_temperature;BME280_humidity;BME280_pressure;Samples;Min_cycle;Max_cycle;Signal;HPM_P1;HPM_P2
2021/05/25 00:00:17;;;;;;;1.47;0.90;;;10.20;87.00;;;;;;5038138;28;20504;-77
2021/05/25 00:02:45;;;;;;;1.13;0.90;;;10.20;86.80;;;;;;5036890;28;20408;-77
2021/05/25 00:05:13;;;;;;;6.80;1.93;;;10.10;86.00;;;;;;5038980;28;20456;-76
2021/05/25 00:07:39;;;;;;;1.23;1.07;;;10.10;85.60;;;;;;5037314;28;20416;-77
2021/05/25 00:10:07;;;;;;;2.37;1.07;;;10.10;85.60;;;;;;5039152;28;20424;-77
2021/05/25 00:12:34;;;;;;;3.10;1.30;;;10.10;85.20;;;;;;5030545;28;20173;-77
2021/05/25 00:14:59;;;;;;;1.83;0.90;;;10.10;84.70;;;;;;5030593;28;20799;-77
2021/05/25 00:17:25;;;;;;;1.90;1.23;;;10.10;84.70;;;;;;5029420;28;20424;-76
2021/05/25 00:19:51;;;;;;;2.40;1.00;;;10.10;84.40;;;;;;5039350;28;20238;-76
2021/05/25 00:22:16;;;;;;;2.50;0.90;;;10.10;84.70;;;;;;5050071;28;20199;-77
2021/05/25 00:24:42;;;;;;;4.40;0.90;;;10.10;84.40;;;;;;5040735;28;20272;-77
2021/05/25 00:27:09;;;;;;;0.90;0.90;;;10.10;85.00;;;;;;5031543;28;20216;-77
2021/05/25 00:29:35;;;;;;;1.30;1.10;;;10.10;85.20;;;;;;5040942;28;20182;-77
2021/05/25 00:32:01;;;;;;;2.63;1.10;;;10.10;85.60;;;;;;5046327;28;20539;-77
2021/05/25 00:34:26;;;;;;;1.93;1.20;;;10.00;85.90;;;;;;5046003;28;20458;-76
2021/05/25 00:36:52;;;;;;;4.40;1.00;;;10.00;86.00;;;;;;5037433;28;20483;-76
2021/05/25 00:39:18;;;;;;;1.40;0.80;;;10.00;86.00;;;;;;5041488;28;20181;-77
2021/05/25 00:41:43;;;;;;;2.40;1.40;;;10.00;86.20;;;;;;5031019;28;20181;-77
2021/05/25 00:44:10;;;;;;;2.50;1.10;;;9.90;86.30;;;;;;5031585;28;20180;-76
2021/05/25 00:46:37;;;;;;;2.10;0.93;;;9.90;87.00;;;;;;5032520;28;20298;-77
2021/05/25 00:49:04;;;;;;;1.70;1.10;;;9.80;87.60;;;;;;5041493;28;20453;-76
2021/05/25 00:51:30;;;;;;;3.00;1.40;;;9.80;88.00;;;;;;5029804;28;21017;-76
2021/05/25 00:53:56;;;;;;;2.50;1.13;;;9.80;88.90;;;;;;5031227;28;20428;-77
2021/05/25 00:56:22;;;;;;;6.10;1.30;;;9.70;89.50;;;;;;5045961;28;20965;-77
2021/05/25 00:58:50;;;;;;;1.53;1.13;;;9.70;89.70;;;;;;5034984;28;20439;-76
2021/05/25 01:01:16;;;;;;;1.03;0.90;;;9.70;89.90;;;;;;5037827;28;20423;-76
2021/05/25 01:03:41;;;;;;;1.80;1.20;;;9.70;90.00;;;;;;5045871;28;20451;-77
2021/05/25 01:06:07;;;;;;;2.60;1.20;;;9.70;90.00;;;;;;5038131;28;20215;-76
2021/05/25 01:08:35;;;;;;;2.30;1.20;;;9.70;90.10;;;;;;5043565;28;20271;-77
2021/05/25 01:11:04;;;;;;;2.83;1.20;;;9.60;89.70;;;;;;5049551;28;20231;-78
2021/05/25 01:13:33;;;;;;;1.90;1.10;;;9.60;90.00;;;;;;5046556;28;20450;-76
2021/05/25 01:15:59;;;;;;;2.03;1.17;;;9.60;90.10;;;;;;5044233;28;20449;-76
2021/05/25 01:18:24;;;;;;;2.50;2.00;;;9.60;89.70;;;;;;5045276;28;20416;-78
2021/05/25 01:20:51;;;;;;;9.10;1.20;;;9.50;89.00;;;;;;5048292;28;20580;-77
2021/05/25 01:23:17;;;;;;;4.17;1.20;;;9.50;89.00;;;;;;5050581;28;20283;-76
2021/05/25 01:25:47;;;;;;;1.70;1.10;;;9.50;88.60;;;;;;5047025;28;20545;-76
2021/05/25 01:28:15;;;;;;;1.70;1.20;;;9.50;88.40;;;;;;5043411;28;20455;-77
2021/05/25 01:30:44;;;;;;;4.43;1.30;;;9.50;88.40;;;;;;5039548;28;20542;-76
2021/05/25 01:33:11;;;;;;;3.57;1.30;;;9.50;88.40;;;;;;5043438;28;20481;-77
2021/05/25 01:35:38;;;;;;;2.57;1.47;;;9.40;88.10;;;;;;5062147;28;20451;-77
2021/05/25 01:38:07;;;;;;;4.17;0.97;;;9.40;87.80;;;;;;5045949;28;20446;-76
2021/05/25 01:40:33;;;;;;;4.77;1.30;;;9.40;87.80;;;;;;5047990;28;20428;-76
2021/05/25 01:43:00;;;;;;;2.53;1.20;;;9.40;87.60;;;;;;5032746;28;20523;-76
2021/05/25 01:45:28;;;;;;;2.83;1.20;;;9.40;87.40;;;;;;5033727;28;20447;-77
2021/05/25 01:47:55;;;;;;;3.47;1.30;;;9.40;87.30;;;;;;5049591;28;20777;-76
2021/05/25 01:50:24;;;;;;;2.60;1.13;;;9.40;87.30;;;;;;5026222;28;20451;-76
2021/05/25 01:52:54;;;;;;;1.27;1.00;;;9.40;87.10;;;;;;5040689;28;20851;-77
2021/05/25 01:55:35;;;;;;;3.73;1.40;;;9.30;87.30;;;;;;5035307;28;20440;-76
2021/05/25 01:58:07;;;;;;;2.20;1.30;;;9.30;87.30;;;;;;5045823;28;20456;-76
2021/05/25 02:00:33;;;;;;;2.23;1.27;;;9.30;87.30;;;;;;5040716;28;20423;-77
2021/05/25 02:03:00;;;;;;;1.60;1.13;;;9.30;87.30;;;;;;5042026;28;20428;-77
2021/05/25 02:05:26;;;;;;;3.77;1.33;;;9.20;87.30;;;;;;5037070;28;20569;-76
2021/05/25 02:07:53;;;;;;;3.10;1.30;;;9.20;87.30;;;;;;5046780;28;20423;-77
2021/05/25 02:10:32;;;;;;;1.90;1.00;;;9.30;87.00;;;;;;5030153;28;21108;-77
2021/05/25 02:13:09;;;;;;;3.43;1.10;;;9.30;86.50;;;;;;5046610;28;20423;-78
2021/05/25 02:15:37;;;;;;;1.50;1.20;;;9.30;86.00;;;;;;5046460;28;20476;-76
2021/05/25 02:18:10;;;;;;;2.50;1.20;;;9.30;85.90;;;;;;5041109;28;20415;-78
2021/05/25 02:20:36;;;;;;;3.20;1.20;;;9.30;85.70;;;;;;5039646;28;20415;-77
2021/05/25 02:23:03;;;;;;;4.80;1.50;;;9.30;85.50;;;;;;5044072;28;20570;-77
2021/05/25 02:25:29;;;;;;;3.30;1.30;;;9.40;85.20;;;;;;5046427;28;20811;-77
2021/05/25 02:27:55;;;;;;;3.87;1.00;;;9.50;84.90;;;;;;5042458;28;20482;-76
2021/05/25 02:30:21;;;;;;;1.60;1.03;;;9.50;84.30;;;;;;5036689;28;20971;-76
2021/05/25 02:32:47;;;;;;;6.97;1.17;;;9.50;84.40;;;;;;5040490;28;20442;-78
2021/05/25 02:35:13;;;;;;;1.37;1.00;;;9.40;84.40;;;;;;5039415;28;20419;-76
2021/05/25 02:37:38;;;;;;;3.00;1.37;;;9.40;84.60;;;;;;5044521;28;20430;-77
2021/05/25 02:40:05;;;;;;;4.53;1.13;;;9.30;84.10;;;;;;5044471;28;20184;-77
2021/05/25 02:42:31;;;;;;;1.80;1.20;;;9.30;84.40;;;;;;5041810;28;20226;-77
2021/05/25 02:44:57;;;;;;;4.20;1.30;;;9.30;83.60;;;;;;5038552;28;20451;-77
2021/05/25 02:47:23;;;;;;;3.07;1.00;;;9.30;83.30;;;;;;5051933;28;20403;-77
2021/05/25 02:49:48;;;;;;;2.80;0.90;;;9.20;83.40;;;;;;5037347;28;20250;-78
2021/05/25 02:52:14;;;;;;;5.33;1.10;;;9.20;83.40;;;;;;5042437;28;20752;-78
2021/05/25 02:54:40;;;;;;;1.50;1.10;;;9.20;83.30;;;;;;5045492;28;20740;-77
2021/05/25 02:57:06;;;;;;;3.17;1.40;;;9.20;83.30;;;;;;5040400;28;20435;-77
2021/05/25 02:59:33;;;;;;;5.37;1.43;;;9.20;83.00;;;;;;5037035;28;20538;-76
2021/05/25 03:02:00;;;;;;;2.73;1.03;;;9.20;83.00;;;;;;5043542;28;20530;-78
2021/05/25 03:04:25;;;;;;;4.60;1.20;;;9.10;82.70;;;;;;5045851;28;20442;-77
2021/05/25 03:06:51;;;;;;;2.10;1.20;;;9.20;83.00;;;;;;5042258;28;20447;-77
2021/05/25 03:09:17;;;;;;;6.37;1.20;;;9.10;82.80;;;;;;5049238;28;20188;-75
2021/05/25 03:11:44;;;;;;;1.90;0.97;;;9.10;82.50;;;;;;5056855;28;20216;-76
2021/05/25 03:14:10;;;;;;;1.60;1.00;;;9.10;82.70;;;;;;5055253;28;20252;-78
2021/05/25 03:16:36;;;;;;;2.80;1.47;;;9.10;82.70;;;;;;5058336;28;20458;-76
2021/05/25 03:19:02;;;;;;;4.17;1.40;;;9.10;83.00;;;;;;5043515;28;20420;-77
2021/05/25 03:21:28;;;;;;;6.93;1.13;;;9.00;83.30;;;;;;5042090;28;20203;-76
2021/05/25 03:23:54;;;;;;;3.00;1.20;;;9.00;83.70;;;;;;5046921;28;20601;-77
2021/05/25 03:26:22;;;;;;;7.90;2.00;;;9.00;83.70;;;;;;5039651;28;20312;-77
2021/05/25 03:28:48;;;;;;;3.80;1.00;;;9.00;83.60;;;;;;5045857;28;21016;-76
2021/05/25 03:31:14;;;;;;;3.63;1.10;;;8.90;83.40;;;;;;5041982;28;20472;-77
2021/05/25 03:33:40;;;;;;;2.33;1.07;;;8.90;83.70;;;;;;5046000;28;20426;-78
2021/05/25 03:36:06;;;;;;;6.70;1.30;;;8.90;83.80;;;;;;5040999;28;20444;-76
2021/05/25 03:38:31;;;;;;;3.63;1.10;;;8.90;84.00;;;;;;5030174;28;20193;-77
2021/05/25 03:40:57;;;;;;;1.90;1.07;;;8.90;83.70;;;;;;5031081;28;21327;-76
2021/05/25 03:43:23;;;;;;;3.97;1.10;;;8.90;83.70;;;;;;5047631;28;20188;-76
2021/05/25 03:45:49;;;;;;;3.63;1.17;;;8.90;83.70;;;;;;5040325;28;20216;-77
2021/05/25 03:48:16;;;;;;;6.13;1.30;;;8.90;83.70;;;;;;5044644;28;20185;-77
2021/05/25 03:50:42;;;;;;;1.87;0.80;;;8.90;84.00;;;;;;5040386;28;20825;-78
2021/05/25 03:53:08;;;;;;;1.40;0.90;;;8.80;84.70;;;;;;5037374;28;20419;-76
2021/05/25 03:55:52;;;;;;;5.93;1.40;;;8.80;84.70;;;;;;5042501;28;20427;-77
2021/05/25 04:01:03;;;;;;;1.87;1.00;;;8.80;85.00;;;;;;5038182;28;20508;-77
2021/05/25 04:03:29;;;;;;;1.10;0.90;;;8.80;85.00;;;;;;5042488;28;20938;-76
2021/05/25 04:05:55;;;;;;;1.90;1.20;;;8.80;84.70;;;;;;5044326;28;20527;-77
2021/05/25 04:08:20;;;;;;;3.90;1.07;;;8.80;84.60;;;;;;5038352;28;20793;-77
2021/05/25 04:10:47;;;;;;;1.20;0.80;;;8.90;84.00;;;;;;5047043;28;20200;-76
2021/05/25 04:13:15;;;;;;;1.60;1.00;;;8.90;83.10;;;;;;5037828;28;20437;-78
2021/05/25 04:15:49;;;;;;;1.93;1.30;;;9.00;82.70;;;;;;5047645;28;20534;-76
2021/05/25 04:18:15;;;;;;;1.83;0.90;;;9.00;82.20;;;;;;5030760;28;20469;-76
2021/05/25 04:20:41;;;;;;;1.53;0.80;;;9.00;82.40;;;;;;5028925;28;20427;-77
2021/05/25 04:23:07;;;;;;;1.77;0.80;;;9.00;82.40;;;;;;5040100;28;20429;-77
2021/05/25 04:25:34;;;;;;;1.30;0.80;;;9.00;82.70;;;;;;5037166;28;20623;-77
2021/05/25 04:27:59;;;;;;;1.90;0.70;;;9.00;83.00;;;;;;5041017;28;20443;-77
2021/05/25 04:30:25;;;;;;;2.30;1.00;;;9.00;83.00;;;;;;5040841;28;21425;-77
2021/05/25 04:32:51;;;;;;;1.53;0.87;;;9.10;83.30;;;;;;5018720;28;20271;-76
2021/05/25 04:35:17;;;;;;;1.30;0.80;;;9.10;83.10;;;;;;5042825;28;20591;-77
2021/05/25 04:37:43;;;;;;;2.67;0.90;;;9.00;83.00;;;;;;5040510;28;20509;-77
2021/05/25 04:40:10;;;;;;;3.70;0.93;;;9.00;83.00;;;;;;5051468;28;20901;-77
2021/05/25 04:42:37;;;;;;;1.90;0.90;;;9.00;83.10;;;;;;5044478;28;20437;-77
2021/05/25 04:45:04;;;;;;;1.10;0.70;;;9.10;83.10;;;;;;5039750;28;20435;-78
2021/05/25 04:47:29;;;;;;;2.70;0.93;;;9.10;83.00;;;;;;5055139;28;20923;-75
2021/05/25 04:49:55;;;;;;;1.00;0.73;;;9.00;82.80;;;;;;5036176;28;20435;-75
2021/05/25 04:52:21;;;;;;;2.53;0.73;;;9.00;82.80;;;;;;5034832;28;20295;-76
2021/05/25 04:54:47;;;;;;;2.20;0.70;;;9.10;82.80;;;;;;5050850;28;20211;-77
2021/05/25 04:57:12;;;;;;;1.27;0.80;;;9.10;82.10;;;;;;5053654;28;20279;-77
2021/05/25 04:59:38;;;;;;;1.93;0.70;;;9.20;82.20;;;;;;5053607;28;20275;-77
2021/05/25 05:02:04;;;;;;;1.00;0.70;;;9.20;81.40;;;;;;5052861;28;20200;-77
2021/05/25 05:04:30;;;;;;;1.00;0.70;;;9.30;81.20;;;;;;5054119;28;20184;-73
2021/05/25 05:06:55;;;;;;;1.57;1.00;;;9.30;80.60;;;;;;5058879;28;20720;-75
2021/05/25 05:09:21;;;;;;;2.70;0.80;;;9.40;80.50;;;;;;5054639;28;20428;-76
2021/05/25 05:11:47;;;;;;;1.40;0.80;;;9.50;80.50;;;;;;5032096;28;20883;-77
2021/05/25 05:14:13;;;;;;;1.90;0.77;;;9.50;80.00;;;;;;5034014;28;20424;-76
2021/05/25 05:16:38;;;;;;;1.67;0.60;;;9.60;79.50;;;;;;5031430;28;20209;-76
2021/05/25 05:19:04;;;;;;;2.40;0.97;;;9.50;79.50;;;;;;5031387;28;20200;-76
2021/05/25 05:21:30;;;;;;;2.70;0.60;;;9.60;79.00;;;;;;5033531;28;20296;-74
2021/05/25 05:23:56;;;;;;;1.53;0.70;;;9.60;78.60;;;;;;5033343;28;20208;-76
2021/05/25 05:26:22;;;;;;;1.77;0.90;;;9.60;78.40;;;;;;5034437;28;20466;-75
2021/05/25 05:28:47;;;;;;;2.20;0.97;;;9.70;78.10;;;;;;5032974;28;20283;-77
2021/05/25 05:31:13;;;;;;;1.30;0.87;;;9.70;78.30;;;;;;5032930;28;20221;-76
2021/05/25 05:33:39;;;;;;;3.67;1.43;;;9.70;77.70;;;;;;5034610;28;20868;-77
2021/05/25 05:36:06;;;;;;;4.30;1.27;;;9.70;78.00;;;;;;5034379;28;20573;-76
2021/05/25 05:38:31;;;;;;;1.77;1.10;;;9.70;78.10;;;;;;5032957;28;20698;-76
2021/05/25 05:41:04;;;;;;;3.97;1.00;;;9.70;78.10;;;;;;5034463;28;20440;-77
2021/05/25 05:43:31;;;;;;;2.00;0.73;;;9.80;77.60;;;;;;5037484;28;20185;-77
2021/05/25 05:45:58;;;;;;;2.70;1.10;;;9.90;77.10;;;;;;5035734;28;20452;-75
2021/05/25 05:48:25;;;;;;;1.60;1.20;;;9.90;76.50;;;;;;5036626;28;20481;-76
2021/05/25 05:50:51;;;;;;;1.83;1.13;;;9.80;76.40;;;;;;5034120;28;20992;-77
2021/05/25 05:53:16;;;;;;;1.60;0.80;;;9.80;76.10;;;;;;5039804;28;20427;-76
2021/05/25 05:55:42;;;;;;;1.40;0.80;;;9.90;76.40;;;;;;5041806;28;20201;-78
2021/05/25 05:58:08;;;;;;;1.80;1.10;;;10.00;75.40;;;;;;5038688;28;20609;-74
2021/05/25 06:00:33;;;;;;;2.30;0.83;;;10.00;75.50;;;;;;5031653;28;20197;-75
2021/05/25 06:03:00;;;;;;;2.60;0.93;;;10.00;74.90;;;;;;5031708;28;20322;-78
2021/05/25 06:05:26;;;;;;;4.43;1.10;;;10.00;72.70;;;;;;5029627;28;20232;-75
2021/05/25 06:07:52;;;;;;;1.77;1.13;;;10.00;72.60;;;;;;5030422;28;20435;-75
2021/05/25 06:10:18;;;;;;;1.83;0.80;;;10.10;73.20;;;;;;5031708;28;20427;-75
2021/05/25 06:12:44;;;;;;;1.90;0.93;;;10.10;72.60;;;;;;5031948;28;20423;-75
2021/05/25 06:15:10;;;;;;;2.83;1.07;;;10.10;72.70;;;;;;5031372;28;20196;-77
2021/05/25 06:17:38;;;;;;;0.90;0.73;;;10.10;72.10;;;;;;5032591;28;20640;-79
2021/05/25 06:20:05;;;;;;;1.03;0.87;;;10.20;71.70;;;;;;5031415;28;20924;-77
2021/05/25 06:22:31;;;;;;;4.83;1.03;;;10.30;71.40;;;;;;5031228;28;20444;-75
2021/05/25 06:24:57;;;;;;;3.23;0.87;;;10.30;71.80;;;;;;5031293;28;21020;-77
2021/05/25 06:27:23;;;;;;;1.37;0.83;;;10.30;71.70;;;;;;5031764;28;20215;-77
2021/05/25 06:29:49;;;;;;;1.30;0.73;;;10.30;71.40;;;;;;5042911;28;20517;-76
2021/05/25 06:32:15;;;;;;;1.17;0.97;;;10.30;71.30;;;;;;4993366;28;1205132;-77
2021/05/25 06:34:40;;;;;;;1.30;0.70;;;10.30;71.30;;;;;;5033194;28;20181;-76
2021/05/25 06:37:06;;;;;;;1.10;0.80;;;10.30;70.10;;;;;;5033742;28;20231;-78
2021/05/25 06:39:32;;;;;;;3.07;0.93;;;10.30;69.70;;;;;;5033587;28;20284;-77
2021/05/25 06:41:57;;;;;;;1.40;0.70;;;10.30;69.70;;;;;;5033112;28;20272;-76
2021/05/25 06:44:23;;;;;;;1.93;0.87;;;10.50;69.20;;;;;;5035789;28;20185;-78
2021/05/25 06:46:49;;;;;;;3.67;0.80;;;10.60;69.40;;;;;;5036409;28;20213;-76
2021/05/25 06:49:15;;;;;;;1.30;0.77;;;10.70;69.10;;;;;;5035920;28;20270;-76
2021/05/25 06:51:40;;;;;;;4.07;1.10;;;10.80;68.30;;;;;;5035125;28;20209;-75
2021/05/25 06:54:07;;;;;;;3.60;1.30;;;11.00;68.20;;;;;;5043709;28;20192;-76
2021/05/25 06:56:34;;;;;;;0.80;0.50;;;11.10;67.00;;;;;;5054257;28;20204;-77
2021/05/25 06:59:00;;;;;;;1.93;0.77;;;11.10;66.70;;;;;;5055192;28;20425;-75
2021/05/25 07:01:26;;;;;;;2.37;0.73;;;11.00;67.00;;;;;;5055377;28;20455;-76
2021/05/25 07:03:53;;;;;;;2.40;0.80;;;11.00;67.00;;;;;;5040228;28;20828;-76
2021/05/25 07:06:19;;;;;;;3.27;0.90;;;11.00;67.60;;;;;;5034396;28;20618;-77
2021/05/25 07:08:46;;;;;;;1.40;0.90;;;11.10;66.60;;;;;;5032017;28;20922;-76
2021/05/25 07:11:12;;;;;;;6.17;0.93;;;11.20;67.00;;;;;;5036577;28;20475;-77
2021/05/25 07:13:37;;;;;;;2.43;0.80;;;11.20;66.30;;;;;;5035415;28;20432;-76
2021/05/25 07:16:03;;;;;;;2.67;0.90;;;11.30;66.40;;;;;;5033859;28;20336;-76
2021/05/25 07:18:29;;;;;;;1.10;0.80;;;11.10;65.70;;;;;;5033820;28;20189;-76
2021/05/25 07:20:55;;;;;;;2.10;0.97;;;11.00;66.10;;;;;;5034359;28;20443;-79
2021/05/25 07:23:20;;;;;;;0.93;0.60;;;11.00;66.40;;;;;;5030875;28;20751;-77
2021/05/25 07:25:46;;;;;;;0.70;0.57;;;11.00;66.90;;;;;;5033173;28;20216;-78
2021/05/25 07:28:12;;;;;;;1.30;0.80;;;11.00;66.40;;;;;;5051103;28;20188;-77
2021/05/25 07:30:38;;;;;;;1.73;0.70;;;11.10;66.10;;;;;;5045590;28;20223;-78
2021/05/25 07:33:04;;;;;;;7.60;1.43;;;11.20;64.50;;;;;;5032134;28;20185;-75
2021/05/25 07:35:30;;;;;;;2.40;0.90;;;11.30;65.10;;;;;;5021019;28;20208;-78
2021/05/25 07:37:56;;;;;;;1.00;0.70;;;11.50;63.80;;;;;;5051169;28;20454;-76
2021/05/25 07:40:22;;;;;;;1.70;0.90;;;11.60;62.80;;;;;;5051010;28;20458;-75
2021/05/25 07:42:47;;;;;;;2.40;1.00;;;11.80;62.00;;;;;;5050321;28;20442;-76
2021/05/25 07:45:15;;;;;;;1.67;0.90;;;11.90;61.20;;;;;;5051287;28;20184;-74
2021/05/25 07:47:41;;;;;;;1.90;0.80;;;11.90;59.20;;;;;;5049691;28;20655;-76
2021/05/25 07:50:14;;;;;;;1.10;0.80;;;12.00;58.70;;;;;;5046734;28;20489;-77
2021/05/25 07:52:44;;;;;;;1.27;0.63;;;12.10;58.40;;;;;;5029675;28;20593;-76
2021/05/25 07:55:11;;;;;;;6.00;0.83;;;12.00;58.50;;;;;;5029567;28;20442;-75
2021/05/25 07:57:37;;;;;;;2.93;0.90;;;12.00;58.00;;;;;;5043568;28;20446;-76
2021/05/25 08:00:05;;;;;;;1.50;1.00;;;12.00;58.70;;;;;;5045134;28;20431;-76
2021/05/25 08:02:30;;;;;;;3.27;1.10;;;12.10;58.00;;;;;;5030869;28;20435;-76
2021/05/25 08:04:56;;;;;;;1.83;1.07;;;12.10;57.80;;;;;;5036483;28;21056;-77
2021/05/25 08:07:22;;;;;;;2.13;0.83;;;12.00;58.20;;;;;;5050842;28;20208;-77
2021/05/25 08:09:47;;;;;;;4.60;0.90;;;11.80;58.90;;;;;;5030383;28;20826;-76
2021/05/25 08:12:13;;;;;;;1.73;1.00;;;11.80;59.10;;;;;;5030646;28;20208;-75
2021/05/25 08:14:39;;;;;;;2.10;0.87;;;11.80;59.50;;;;;;5030414;28;20189;-76
2021/05/25 08:17:15;;;;;;;2.57;0.87;;;11.90;59.10;;;;;;5030570;28;20250;-75
2021/05/25 08:19:43;;;;;;;2.20;1.07;;;12.00;59.30;;;;;;5029574;28;20191;-76
2021/05/25 08:22:09;;;;;;;1.67;0.90;;;12.10;59.50;;;;;;5030051;28;20430;-76
2021/05/25 08:24:34;;;;;;;2.40;1.00;;;12.30;58.20;;;;;;5030612;28;20523;-77
2021/05/25 08:27:00;;;;;;;2.20;1.13;;;12.30;57.60;;;;;;5030592;28;20616;-76
2021/05/25 08:29:26;;;;;;;3.63;0.90;;;12.40;56.90;;;;;;5029680;28;20561;-75
2021/05/25 08:31:51;;;;;;;3.53;1.23;;;12.50;56.80;;;;;;5030073;28;20217;-75
2021/05/25 08:34:17;;;;;;;5.27;1.57;;;12.50;56.40;;;;;;5030594;28;20639;-75
2021/05/25 08:36:43;;;;;;;3.73;0.90;;;12.40;57.00;;;;;;5030856;28;20205;-76
2021/05/25 08:39:08;;;;;;;1.83;0.83;;;12.10;57.00;;;;;;5049545;28;20604;-77
2021/05/25 08:41:36;;;;;;;4.23;0.80;;;12.30;57.40;;;;;;5049997;28;20196;-76
2021/05/25 08:44:03;;;;;;;0.80;0.80;;;12.50;56.60;;;;;;5048821;28;20671;-77
2021/05/25 08:46:29;;;;;;;3.80;1.10;;;12.60;56.90;;;;;;5049770;28;20447;-76
2021/05/25 08:48:56;;;;;;;3.00;1.00;;;12.70;56.90;;;;;;5050197;28;20462;-77
2021/05/25 08:51:22;;;;;;;2.20;0.90;;;12.80;57.00;;;;;;5035216;28;20558;-76
2021/05/25 08:53:49;;;;;;;4.50;0.80;;;12.90;56.00;;;;;;5030202;28;20503;-78
2021/05/25 08:56:14;;;;;;;1.40;0.70;;;12.60;56.00;;;;;;5031841;28;20205;-76
2021/05/25 08:58:40;;;;;;;1.40;0.80;;;12.60;56.60;;;;;;5031698;28;20420;-77
2021/05/25 09:01:06;;;;;;;1.73;0.63;;;12.50;56.60;;;;;;5033115;28;20188;-76
2021/05/25 09:03:31;;;;;;;1.60;0.80;;;12.50;56.20;;;;;;5036891;28;20245;-77
2021/05/25 09:06:07;;;;;;;2.90;0.87;;;12.50;57.70;;;;;;5039694;28;20209;-76
2021/05/25 09:08:33;;;;;;;1.10;0.70;;;12.80;57.00;;;;;;5049362;28;20204;-78
2021/05/25 09:11:06;;;;;;;2.73;1.00;;;13.00;56.00;;;;;;5045655;28;20482;-76
2021/05/25 09:13:32;;;;;;;3.93;0.90;;;13.10;56.50;;;;;;5047445;28;20419;-77
2021/05/25 09:15:59;;;;;;;1.47;1.10;;;12.90;57.20;;;;;;5044052;28;20538;-77
2021/05/25 09:18:27;;;;;;;2.20;1.10;;;12.70;57.40;;;;;;5048620;28;20518;-75
2021/05/25 09:20:52;;;;;;;4.87;0.97;;;12.60;58.00;;;;;;5057734;28;20529;-77
2021/05/25 09:23:43;;;;;;;4.50;0.70;;;12.70;58.20;;;;;;5062390;28;20457;-77
2021/05/25 09:26:27;;;;;;;1.90;0.77;;;12.60;57.00;;;;;;5064293;28;20208;-76
2021/05/25 09:29:06;;;;;;;1.20;0.83;;;12.30;58.40;;;;;;5042581;28;20872;-77
2021/05/25 09:31:35;;;;;;;3.33;1.03;;;12.30;59.30;;;;;;5041871;28;20531;-76
2021/05/25 09:34:04;;;;;;;1.10;0.77;;;12.60;59.30;;;;;;5042613;28;20427;-76
2021/05/25 09:36:29;;;;;;;3.40;0.90;;;12.70;58.10;;;;;;5041806;28;20597;-75
2021/05/25 09:39:05;;;;;;;1.87;0.80;;;12.70;58.90;;;;;;5033633;28;20566;-77
2021/05/25 09:41:57;;;;;;;2.63;1.13;;;12.50;59.30;;;;;;5048819;28;20272;-76
2021/05/25 09:44:23;;;;;;;0.90;0.67;;;12.30;60.10;;;;;;5054918;28;20415;-76
2021/05/25 09:46:49;;;;;;;1.67;1.13;;;12.20;59.60;;;;;;5053846;28;20442;-77
2021/05/25 09:49:15;;;;;;;4.43;1.00;;;12.10;60.70;;;;;;5043025;28;20223;-79
2021/05/25 09:51:41;;;;;;;3.23;1.20;;;12.00;61.50;;;;;;5033818;28;21001;-78
2021/05/25 09:54:21;;;;;;;3.43;0.90;;;12.10;63.80;;;;;;5033695;28;20424;-77
2021/05/25 09:57:03;;;;;;;1.33;0.90;;;12.10;61.90;;;;;;5033838;28;20443;-76
2021/05/25 09:59:37;;;;;;;2.63;1.20;;;12.10;61.00;;;;;;5034499;28;20420;-77
2021/05/25 10:02:24;;;;;;;3.13;1.53;;;12.30;60.60;;;;;;5034947;28;20426;-76
2021/05/25 10:05:00;;;;;;;1.97;1.20;;;12.60;58.90;;;;;;5056490;28;20788;-77
2021/05/25 10:07:28;;;;;;;4.03;1.00;;;13.10;56.40;;;;;;5054667;28;20422;-77
2021/05/25 10:09:58;;;;;;;4.60;1.13;;;13.30;55.20;;;;;;5042264;28;20514;-76
2021/05/25 10:12:28;;;;;;;1.63;1.10;;;13.40;54.80;;;;;;5033746;28;20463;-76
2021/05/25 10:14:54;;;;;;;3.23;1.50;;;14.00;54.20;;;;;;5034122;28;20424;-77
2021/05/25 10:17:42;;;;;;;3.07;1.23;;;14.30;51.00;;;;;;5034715;28;20479;-78
2021/05/25 10:20:10;;;;;;;3.67;1.40;;;13.60;52.50;;;;;;5034213;28;20416;-77
2021/05/25 10:22:38;;;;;;;2.43;0.80;;;13.50;53.00;;;;;;5046262;28;21021;-77
2021/05/25 10:25:11;;;;;;;2.40;1.10;;;13.70;52.50;;;;;;5031992;28;20462;-76
2021/05/25 10:27:37;;;;;;;4.00;1.30;;;13.90;51.80;;;;;;5033405;28;20420;-77
2021/05/25 10:30:03;;;;;;;4.27;1.20;;;14.00;52.00;;;;;;5032923;28;20458;-77
2021/05/25 10:32:29;;;;;;;3.73;1.00;;;13.80;50.90;;;;;;5033610;28;20591;-78
2021/05/25 10:34:55;;;;;;;1.63;1.03;;;13.70;51.60;;;;;;5035045;28;20424;-78
2021/05/25 10:37:24;;;;;;;4.20;1.17;;;13.20;51.70;;;;;;5039293;28;20192;-78
2021/05/25 10:39:54;;;;;;;2.27;1.20;;;13.00;52.40;;;;;;5054035;28;20451;-77
2021/05/25 10:42:20;;;;;;;1.80;0.90;;;12.90;52.90;;;;;;5047721;28;20416;-78
2021/05/25 10:45:11;;;;;;;2.90;1.17;;;13.00;53.60;;;;;;5034202;28;20435;-77
2021/05/25 10:53:00;;;;;;;3.73;1.20;;;12.90;54.90;;;;;;5033269;28;20526;-79
2021/05/25 10:55:42;;;;;;;2.20;0.83;;;12.90;54.60;;;;;;5033053;28;20489;-78
2021/05/25 10:58:17;;;;;;;4.30;1.37;;;12.70;55.00;;;;;;5033054;28;20418;-78
2021/05/25 11:00:44;;;;;;;5.13;1.97;;;12.80;55.70;;;;;;5030905;28;20419;-78
2021/05/25 11:03:13;;;;;;;3.13;1.07;;;13.00;55.70;;;;;;5045946;28;20427;-77
2021/05/25 11:06:12;;;;;;;4.00;1.53;;;13.10;55.60;;;;;;5030445;28;20818;-78
2021/05/25 11:08:40;;;;;;;3.90;1.30;;;13.30;55.70;;;;;;5054884;28;20427;-77
2021/05/25 11:11:14;;;;;;;2.60;1.10;;;13.30;57.00;;;;;;5040852;28;20475;-77
2021/05/25 11:13:49;;;;;;;2.73;1.20;;;13.00;59.10;;;;;;5032486;28;20925;-78
2021/05/25 11:16:28;;;;;;;4.17;1.70;;;13.00;60.00;;;;;;5019626;28;20450;-77
2021/05/25 11:19:03;;;;;;;6.47;2.10;;;12.90;60.40;;;;;;5048882;28;20435;-76
2021/05/25 11:21:44;;;;;;;4.13;1.60;;;12.90;61.30;;;;;;5049430;28;20425;-79
2021/05/25 11:24:46;;;;;;;4.00;1.50;;;12.90;65.30;;;;;;5015374;28;20434;-76
2021/05/25 11:27:15;;;;;;;5.43;1.77;;;12.20;72.30;;;;;;5030511;28;20522;-76
2021/05/25 11:29:41;;;;;;;3.00;1.70;;;11.40;82.80;;;;;;5028402;28;20451;-75
2021/05/25 11:32:16;;;;;;;3.00;1.30;;;11.10;81.80;;;;;;4997928;28;20478;-76
2021/05/25 11:34:43;;;;;;;2.30;1.20;;;11.30;82.50;;;;;;5048058;28;20483;-76
2021/05/25 11:37:11;;;;;;;4.37;1.30;;;11.70;79.70;;;;;;5047932;28;21126;-75
2021/05/25 11:39:37;;;;;;;1.87;1.13;;;12.30;78.30;;;;;;5047771;28;20515;-76
2021/05/25 11:42:05;;;;;;;2.37;0.97;;;12.80;72.90;;;;;;5043388;28;20439;-75
2021/05/25 11:44:44;;;;;;;3.67;1.70;;;13.40;72.40;;;;;;5028488;28;20937;-74
2021/05/25 11:47:10;;;;;;;3.00;1.20;;;13.90;68.30;;;;;;5030217;28;20446;-76
2021/05/25 11:49:38;;;;;;;2.53;1.03;;;13.70;65.00;;;;;;5031713;28;20972;-78
2021/05/25 11:52:18;;;;;;;3.60;1.10;;;13.00;61.50;;;;;;5032484;28;20466;-77
2021/05/25 11:54:45;;;;;;;2.73;1.20;;;12.70;62.80;;;;;;5030352;28;21005;-75
2021/05/25 11:57:26;;;;;;;2.60;0.93;;;13.00;60.70;;;;;;5020783;28;20449;-76
2021/05/25 11:59:52;;;;;;;1.90;1.00;;;13.60;61.50;;;;;;5044406;28;20517;-75
2021/05/25 12:02:31;;;;;;;2.27;0.87;;;14.30;60.30;;;;;;5050536;28;20459;-76
2021/05/25 12:05:07;;;;;;;3.40;1.40;;;14.30;54.10;;;;;;5050139;28;20249;-75
2021/05/25 12:07:34;;;;;;;3.10;1.20;;;14.50;55.80;;;;;;5030825;28;20436;-76
2021/05/25 12:10:01;;;;;;;3.20;1.20;;;14.60;51.80;;;;;;5034529;28;20487;-78
2021/05/25 12:12:29;;;;;;;3.33;1.40;;;14.70;52.10;;;;;;5034730;28;20518;-76
2021/05/25 12:14:58;;;;;;;2.07;1.13;;;14.50;52.60;;;;;;5035173;28;20423;-77
2021/05/25 12:17:25;;;;;;;3.03;1.00;;;14.40;52.90;;;;;;5034359;28;20877;-77
2021/05/25 12:19:56;;;;;;;1.77;0.80;;;14.40;51.20;;;;;;5031943;28;20419;-77
2021/05/25 12:22:33;;;;;;;3.80;1.20;;;14.50;50.30;;;;;;5045960;28;21054;-77
2021/05/25 12:25:18;;;;;;;4.73;1.00;;;14.40;48.10;;;;;;5051707;28;20426;-77
2021/05/25 12:27:44;;;;;;;2.27;1.00;;;14.90;48.10;;;;;;5029329;28;20424;-77
2021/05/25 12:30:11;;;;;;;4.20;1.17;;;15.40;47.70;;;;;;5029869;28;20428;-78
2021/05/25 12:32:37;;;;;;;1.50;1.00;;;15.50;45.40;;;;;;5033889;28;20495;-79
2021/05/25 12:35:06;;;;;;;2.30;1.20;;;14.50;48.30;;;;;;5031447;28;20798;-80
2021/05/25 12:37:32;;;;;;;2.03;1.20;;;14.70;49.30;;;;;;5038809;28;20438;-77
2021/05/25 12:40:09;;;;;;;3.80;1.33;;;15.40;48.20;;;;;;5037489;28;20922;-78
2021/05/25 12:42:37;;;;;;;6.17;1.33;;;15.40;47.70;;;;;;5030776;28;20184;-77
2021/05/25 12:45:14;;;;;;;3.13;1.40;;;15.60;46.60;;;;;;5030920;28;20435;-78
2021/05/25 12:47:55;;;;;;;4.00;1.20;;;16.00;45.30;;;;;;5031143;28;20790;-77
2021/05/25 12:50:26;;;;;;;3.60;1.00;;;16.00;43.80;;;;;;5048559;28;21029;-79
2021/05/25 12:53:04;;;;;;;2.60;1.17;;;15.80;44.70;;;;;;5051136;28;20446;-77
2021/05/25 12:55:31;;;;;;;1.27;0.80;;;15.60;45.50;;;;;;5029449;28;20440;-78
2021/05/25 12:57:56;;;;;;;2.27;0.90;;;15.60;45.50;;;;;;5048994;28;20437;-77
2021/05/25 13:00:40;;;;;;;1.90;1.10;;;15.10;47.90;;;;;;5054025;28;20414;-77
2021/05/25 13:03:27;;;;;;;2.60;0.73;;;14.90;48.60;;;;;;5039458;28;20189;-77